createdAt,value
2022-09-15T00:02:18.282Z,99268.25
2022-09-15T00:04:45.027Z,99262.84
2022-09-15T00:07:11.497Z,99263.38
2022-09-15T00:09:37.970Z,99254.94
2022-09-15T00:12:04.888Z,99244.66
2022-09-15T00:14:31.294Z,99241.75
2022-09-15T00:16:58.079Z,99239.94
2022-09-15T00:19:24.823Z,99238.84
2022-09-15T00:21:54.364Z,99236.06
2022-09-15T00:24:21.071Z,99233.44
2022-09-15T00:26:47.576Z,99234.41
2022-09-15T00:29:14.232Z,99231.75
2022-09-15T00:31:40.688Z,99235.25
2022-09-15T00:34:07.843Z,99236.84
2022-09-15T00:36:34.250Z,99240.59
2022-09-15T00:39:00.888Z,99234.66
2022-09-15T00:41:27.850Z,99236.44
2022-09-15T00:43:57.722Z,99232.13
2022-09-15T00:46:29.268Z,99237.22
2022-09-15T00:49:06.030Z,99229.75
2022-09-15T00:51:40.086Z,99231.84
2022-09-15T00:54:19.216Z,99231.56
2022-09-15T00:57:14.790Z,99220.16
2022-09-15T01:00:07.278Z,99219.91
2022-09-15T01:02:55.085Z,99223.78
2022-09-15T01:05:51.495Z,99223.50
2022-09-15T01:09:15.172Z,99224.09
2022-09-15T01:12:03.363Z,99227.56
2022-09-15T01:14:29.811Z,99224.09
2022-09-15T01:16:59.916Z,99224.75
2022-09-15T01:19:48.364Z,99222.69
2022-09-15T01:22:14.955Z,99228.09
2022-09-15T01:25:10.188Z,99223.13
2022-09-15T01:28:01.383Z,99224.25
2022-09-15T01:30:34.916Z,99218.13
2022-09-15T01:33:21.493Z,99219.66
2022-09-15T01:35:53.383Z,99214.25
2022-09-15T01:38:39.671Z,99217.03
2022-09-15T01:41:16.146Z,99209.50
2022-09-15T01:44:12.116Z,99216.19
2022-09-15T01:46:52.608Z,99209.09
2022-09-15T01:49:25.078Z,99203.13
2022-09-15T01:51:53.550Z,99198.41
2022-09-15T01:54:27.995Z,99201.47
2022-09-15T01:56:54.890Z,99197.31
2022-09-15T01:59:21.432Z,99200.63
2022-09-15T02:01:59.325Z,99200.50
2022-09-15T02:04:44.649Z,99190.75
2022-09-15T02:07:20.516Z,99192.84
2022-09-15T02:09:58.396Z,99190.75
2022-09-15T02:12:34.805Z,99192.56
2022-09-15T02:15:08.350Z,99197.16
2022-09-15T02:17:42.735Z,99185.50
2022-09-15T02:20:17.667Z,99184.50
2022-09-15T02:22:54.082Z,99183.69
2022-09-15T02:25:28.972Z,99181.72
2022-09-15T02:28:00.216Z,99174.50
2022-09-15T02:30:28.332Z,99183.81
2022-09-15T02:32:59.906Z,99179.63
2022-09-15T02:35:28.623Z,99189.91
2022-09-15T02:37:59.727Z,99180.19
2022-09-15T02:40:28.963Z,99182.41
2022-09-15T02:42:58.750Z,99181.69
2022-09-15T02:45:26.743Z,99183.94
2022-09-15T02:47:53.814Z,99179.19
2022-09-15T02:50:20.466Z,99184.06
2022-09-15T02:52:47.141Z,99180.03
2022-09-15T02:55:13.654Z,99184.94
2022-09-15T02:57:40.307Z,99183.97
2022-09-15T03:00:15.915Z,99187.31
2022-09-15T03:02:45.433Z,99187.97
2022-09-15T03:05:14.515Z,99186.34
2022-09-15T03:07:41.859Z,99191.63
2022-09-15T03:10:10.186Z,99192.28
2022-09-15T03:12:42.012Z,99195.09
2022-09-15T03:15:11.022Z,99196.22
2022-09-15T03:17:39.292Z,99192.44
2022-09-15T03:20:08.055Z,99199.78
2022-09-15T03:22:35.989Z,99202.16
2022-09-15T03:25:05.410Z,99197.84
2022-09-15T03:27:33.000Z,99203.91
2022-09-15T03:29:59.777Z,99195.59
2022-09-15T03:32:26.427Z,99196.00
2022-09-15T03:34:57.704Z,99193.09
2022-09-15T03:37:25.055Z,99192.84
2022-09-15T03:39:51.715Z,99180.88
2022-09-15T03:42:18.924Z,99192.72
2022-09-15T03:44:45.290Z,99187.81
2022-09-15T03:47:12.192Z,99192.84
2022-09-15T03:49:38.847Z,99193.13
2022-09-15T03:52:05.615Z,99186.47
2022-09-15T03:54:32.133Z,99189.66
2022-09-15T03:56:58.981Z,99183.97
2022-09-15T03:59:26.046Z,99185.50
2022-09-15T04:01:52.514Z,99205.34
2022-09-15T04:04:18.962Z,99214.34
2022-09-15T04:06:45.569Z,99222.94
2022-09-15T04:09:12.312Z,99218.81
2022-09-15T04:11:39.499Z,99222.94
2022-09-15T04:14:06.321Z,99223.47
2022-09-15T04:16:34.004Z,99233.69
2022-09-15T04:19:00.794Z,99234.81
2022-09-15T04:21:27.209Z,99234.59
2022-09-15T04:23:54.426Z,99241.03
2022-09-15T04:26:20.776Z,99247.00
2022-09-15T04:28:47.794Z,99247.78
2022-09-15T04:31:17.167Z,99250.28
2022-09-15T04:33:44.908Z,99258.91
2022-09-15T04:36:17.652Z,99260.34
2022-09-15T04:38:44.834Z,99250.53
2022-09-15T04:41:12.610Z,99256.78
2022-09-15T04:43:39.132Z,99255.56
2022-09-15T04:46:06.132Z,99261.69
2022-09-15T04:48:32.589Z,99260.84
2022-09-15T04:51:06.615Z,99268.75
2022-09-15T04:53:33.925Z,99261.00
2022-09-15T04:56:13.086Z,99270.34
2022-09-15T04:58:51.315Z,99275.44
2022-09-15T05:01:22.558Z,99279.34
2022-09-15T05:03:49.570Z,99281.72
2022-09-15T05:06:20.146Z,99275.69
2022-09-15T05:08:48.345Z,99278.44
2022-09-15T05:11:15.560Z,99275.97
2022-09-15T05:13:42.401Z,99274.75
2022-09-15T05:16:17.633Z,99281.63
2022-09-15T05:18:45.967Z,99283.56
2022-09-15T05:21:15.331Z,99288.59
2022-09-15T05:23:41.864Z,99289.03
2022-09-15T05:26:12.547Z,99286.78
2022-09-15T05:28:39.742Z,99291.34
2022-09-15T05:31:14.959Z,99287.53
2022-09-15T05:33:41.699Z,99297.84
2022-09-15T05:36:08.413Z,99298.22
2022-09-15T05:38:35.699Z,99293.94
2022-09-15T05:41:19.133Z,99292.47
2022-09-15T05:43:46.931Z,99296.78
2022-09-15T05:46:14.556Z,99310.91
2022-09-15T05:48:41.515Z,99308.78
2022-09-15T05:51:09.748Z,99313.56
2022-09-15T05:53:36.955Z,99307.81
2022-09-15T05:56:10.847Z,99303.41
2022-09-15T05:58:41.768Z,99309.03
2022-09-15T06:01:12.638Z,99311.78
2022-09-15T06:03:39.399Z,99313.09
2022-09-15T06:06:06.425Z,99312.72
2022-09-15T06:08:35.260Z,99318.59
2022-09-15T06:11:08.698Z,99319.44
2022-09-15T06:13:35.343Z,99328.31
2022-09-15T06:16:04.599Z,99338.22
2022-09-15T06:18:32.677Z,99340.16
2022-09-15T06:21:04.067Z,99344.09
2022-09-15T06:23:30.479Z,99337.88
2022-09-15T06:25:57.424Z,99343.25
2022-09-15T06:28:24.806Z,99356.19
2022-09-15T06:30:51.865Z,99364.06
2022-09-15T06:33:18.757Z,99363.47
2022-09-15T06:35:47.173Z,99364.31
2022-09-15T06:38:14.070Z,99377.22
2022-09-15T06:40:41.891Z,99374.22
2022-09-15T06:43:09.039Z,99394.28
2022-09-15T06:45:37.205Z,99382.69
2022-09-15T06:48:23.522Z,99385.31
2022-09-15T06:50:55.489Z,99403.09
2022-09-15T06:53:22.495Z,99403.59
2022-09-15T06:55:49.341Z,99404.28
2022-09-15T06:58:16.324Z,99404.34
2022-09-15T07:00:43.024Z,99411.41
2022-09-15T07:03:09.511Z,99410.44
2022-09-15T07:05:36.018Z,99416.66
2022-09-15T07:08:02.815Z,99414.41
2022-09-15T07:10:29.195Z,99412.69
2022-09-15T07:12:55.688Z,99415.50
2022-09-15T07:15:24.767Z,99414.66
2022-09-15T07:17:51.132Z,99424.88
2022-09-15T07:20:17.561Z,99429.91
2022-09-15T07:22:44.167Z,99442.28
2022-09-15T07:25:10.713Z,99441.84
2022-09-15T07:27:37.219Z,99433.28
2022-09-15T07:30:08.935Z,99443.41
2022-09-15T07:32:35.448Z,99449.91
2022-09-15T07:35:02.417Z,99441.78
2022-09-15T07:37:28.967Z,99443.97
2022-09-15T07:39:55.747Z,99451.88
2022-09-15T07:42:22.171Z,99459.53
2022-09-15T07:44:48.763Z,99464.78
2022-09-15T07:47:15.384Z,99471.84
2022-09-15T07:49:42.102Z,99465.69
2022-09-15T07:52:09.572Z,99455.94
2022-09-15T07:54:36.267Z,99463.16
2022-09-15T07:57:02.931Z,99463.00
2022-09-15T07:59:29.444Z,99470.63
2022-09-15T08:01:55.929Z,99477.78
2022-09-15T08:04:22.564Z,99481.09
2022-09-15T08:06:48.947Z,99474.16
2022-09-15T08:09:17.589Z,99480.84
2022-09-15T08:11:44.444Z,99484.69
2022-09-15T08:14:11.184Z,99478.72
2022-09-15T08:16:38.288Z,99481.00
2022-09-15T08:19:05.554Z,99485.56
2022-09-15T08:21:32.018Z,99489.31
2022-09-15T08:24:00.738Z,99488.47
2022-09-15T08:26:29.047Z,99486.88
2022-09-15T08:28:55.822Z,99488.47
2022-09-15T08:31:24.093Z,99486.91
2022-09-15T08:33:52.355Z,99496.25
2022-09-15T08:36:19.426Z,99488.56
2022-09-15T08:38:46.641Z,99492.78
2022-09-15T08:41:24.485Z,99496.47
2022-09-15T08:44:08.275Z,99495.72
2022-09-15T08:47:00.814Z,99495.50
2022-09-15T08:49:51.684Z,99504.13
2022-09-15T08:52:45.721Z,99507.75
2022-09-15T08:55:38.899Z,99510.75
2022-09-15T08:58:05.999Z,99514.91
2022-09-15T09:00:33.349Z,99509.63
2022-09-15T09:03:27.205Z,99514.88
2022-09-15T09:06:12.501Z,99514.88
2022-09-15T09:09:06.117Z,99515.94
2022-09-15T09:12:10.713Z,99517.59
2022-09-15T09:14:43.110Z,99517.97
2022-09-15T09:17:36.628Z,99522.00
2022-09-15T09:20:12.157Z,99517.59
2022-09-15T09:22:42.583Z,99530.84
2022-09-15T09:25:27.164Z,99526.38
2022-09-15T09:27:55.005Z,99534.56
2022-09-15T09:30:24.695Z,99531.56
2022-09-15T09:33:20.788Z,99538.81
2022-09-15T09:35:53.969Z,99531.78
2022-09-15T09:38:26.292Z,99527.72
2022-09-15T09:40:53.381Z,99536.28
2022-09-15T09:43:20.330Z,99536.09
2022-09-15T09:45:47.070Z,99539.69
2022-09-15T09:48:22.755Z,99534.78
2022-09-15T09:50:50.730Z,99536.75
2022-09-15T09:53:26.130Z,99534.81
2022-09-15T09:55:55.373Z,99534.22
2022-09-15T09:58:25.122Z,99537.09
2022-09-15T10:00:52.898Z,99543.69
2022-09-15T10:03:27.090Z,99544.28
2022-09-15T10:06:17.249Z,99552.94
2022-09-15T10:08:54.883Z,99545.41
2022-09-15T10:11:22.550Z,99549.84
2022-09-15T10:13:52.785Z,99551.72
2022-09-15T10:16:22.744Z,99556.09
2022-09-15T10:18:54.250Z,99554.03
2022-09-15T10:21:24.752Z,99556.28
2022-09-15T10:23:51.599Z,99555.00
2022-09-15T10:26:32.055Z,99564.34
2022-09-15T10:29:16.558Z,99569.97
2022-09-15T10:31:45.094Z,99570.59
2022-09-15T10:34:27.594Z,99570.09
2022-09-15T10:37:03.716Z,99580.31
2022-09-15T10:39:54.823Z,99584.28
2022-09-15T10:42:34.000Z,99587.06
2022-09-15T10:45:22.507Z,99589.66
2022-09-15T10:48:17.332Z,99585.16
2022-09-15T10:51:00.710Z,99584.53
2022-09-15T10:54:07.129Z,99589.56
2022-09-15T10:56:48.181Z,99580.47
2022-09-15T10:59:48.894Z,99582.47
2022-09-15T11:02:36.922Z,99583.94
2022-09-15T11:05:22.869Z,99586.66
2022-09-15T11:08:01.785Z,99580.84
2022-09-15T11:10:43.506Z,99578.03
2022-09-15T11:13:25.974Z,99580.78
2022-09-15T11:16:07.982Z,99578.63
2022-09-15T11:19:02.499Z,99575.75
2022-09-15T11:21:43.969Z,99579.50
2022-09-15T11:24:41.320Z,99573.56
2022-09-15T11:27:26.653Z,99579.72
2022-09-15T11:30:04.252Z,99574.78
2022-09-15T11:32:58.199Z,99573.00
2022-09-15T11:35:59.371Z,99590.00
2022-09-15T11:39:02.075Z,99583.84
2022-09-15T11:41:36.104Z,99591.66
2022-09-15T11:44:33.768Z,99580.34
2022-09-15T11:47:15.481Z,99579.38
2022-09-15T11:49:53.773Z,99589.13
2022-09-15T11:52:42.261Z,99581.09
2022-09-15T11:55:15.754Z,99579.22
2022-09-15T11:58:21.623Z,99587.81
2022-09-15T12:01:11.816Z,99588.13
2022-09-15T12:03:53.858Z,99593.66
2022-09-15T12:06:28.164Z,99596.88
2022-09-15T12:09:06.441Z,99597.88
2022-09-15T12:11:36.862Z,99593.22
2022-09-15T12:14:04.821Z,99592.38
2022-09-15T12:16:33.614Z,99600.28
2022-09-15T12:19:17.124Z,99594.06
2022-09-15T12:21:57.925Z,99592.41
2022-09-15T12:24:45.803Z,99585.28
2022-09-15T12:27:20.058Z,99587.66
2022-09-15T12:29:52.227Z,99582.38
2022-09-15T12:32:23.178Z,99582.28
2022-09-15T12:35:19.403Z,99578.47
2022-09-15T12:38:13.432Z,99580.09
2022-09-15T12:40:40.751Z,99592.13
2022-09-15T12:43:16.377Z,99589.53
2022-09-15T12:46:00.793Z,99594.06
2022-09-15T12:48:33.743Z,99605.94
2022-09-15T12:51:07.015Z,99607.63
2022-09-15T12:53:37.330Z,99610.38
2022-09-15T12:56:11.531Z,99608.31
2022-09-15T12:58:42.120Z,99604.28
2022-09-15T13:01:27.102Z,99608.81
2022-09-15T13:04:00.685Z,99611.00
2022-09-15T13:06:38.334Z,99618.28
2022-09-15T13:09:05.762Z,99610.19
2022-09-15T13:11:38.244Z,99613.22
2022-09-15T13:14:08.320Z,99616.00
2022-09-15T13:16:48.542Z,99614.16
2022-09-15T13:19:33.491Z,99609.75
2022-09-15T13:21:59.948Z,99612.44
2022-09-15T13:24:37.492Z,99618.25
2022-09-15T13:27:06.172Z,99619.91
2022-09-15T13:29:38.712Z,99622.44
2022-09-15T13:32:39.680Z,99617.06
2022-09-15T13:35:38.700Z,99614.47
2022-09-15T13:38:37.030Z,99603.66
2022-09-15T13:41:23.290Z,99619.91
2022-09-15T13:44:18.074Z,99611.75
2022-09-15T13:47:28.744Z,99605.19
2022-09-15T13:50:01.366Z,99603.56
2022-09-15T13:53:03.452Z,99604.84
2022-09-15T13:55:39.262Z,99601.25
2022-09-15T14:01:03.000Z,99605.97
2022-09-15T14:03:38.780Z,99600.56
2022-09-15T14:06:17.869Z,99599.25
2022-09-15T14:08:47.895Z,99605.81
2022-09-15T14:11:17.195Z,99614.28
2022-09-15T14:13:47.606Z,99599.38
2022-09-15T14:16:35.202Z,99610.78
2022-09-15T14:19:21.887Z,99603.34
2022-09-15T14:21:48.996Z,99607.00
2022-09-15T14:24:22.630Z,99607.00
2022-09-15T14:26:49.503Z,99604.72
2022-09-15T14:29:20.401Z,99608.94
2022-09-15T14:31:49.006Z,99612.25
2022-09-15T14:34:26.260Z,99611.44
2022-09-15T14:37:07.748Z,99614.06
2022-09-15T14:39:37.496Z,99610.28
2022-09-15T14:42:22.983Z,99609.94
2022-09-15T14:47:39.928Z,99609.19
2022-09-15T14:50:18.518Z,99601.44
2022-09-15T14:52:49.778Z,99611.94
2022-09-15T14:55:28.135Z,99611.38
2022-09-15T14:58:03.674Z,99603.69
2022-09-15T15:00:37.398Z,99602.88
2022-09-15T15:03:29.791Z,99606.09
2022-09-15T15:06:12.772Z,99602.59
2022-09-15T15:09:03.316Z,99615.91
2022-09-15T15:11:32.778Z,99605.38
2022-09-15T15:13:59.653Z,99607.59
2022-09-15T15:16:29.081Z,99602.19
2022-09-15T15:18:57.044Z,99611.34
2022-09-15T15:21:43.298Z,99607.06
2022-09-15T15:24:12.753Z,99609.78
2022-09-15T15:26:42.393Z,99608.94
2022-09-15T15:29:45.276Z,99610.78
2022-09-15T15:32:14.852Z,99616.34
2022-09-15T15:34:49.365Z,99610.59
2022-09-15T15:37:33.799Z,99613.28
2022-09-15T15:40:04.344Z,99621.97
2022-09-15T15:42:30.989Z,99621.03
2022-09-15T15:45:04.069Z,99620.88
2022-09-15T15:47:34.919Z,99621.00
2022-09-15T15:50:13.602Z,99615.72
2022-09-15T15:52:41.508Z,99626.09
2022-09-15T15:55:09.793Z,99625.34
2022-09-15T15:57:39.630Z,99622.34
2022-09-15T16:00:35.898Z,99618.84
2022-09-15T16:03:02.469Z,99625.69
2022-09-15T16:05:29.799Z,99625.53
2022-09-15T16:08:01.447Z,99630.72
2022-09-15T16:10:30.606Z,99624.16
2022-09-15T16:12:57.072Z,99622.47
2022-09-15T16:15:23.588Z,99629.19
2022-09-15T16:17:50.830Z,99628.06
2022-09-15T16:20:44.854Z,99626.81
2022-09-15T16:23:14.849Z,99636.06
2022-09-15T16:25:49.637Z,99645.53
2022-09-15T16:28:17.322Z,99635.50
2022-09-15T16:30:44.275Z,99639.53
2022-09-15T16:33:18.290Z,99636.88
2022-09-15T16:35:58.660Z,99636.88
2022-09-15T16:38:25.848Z,99642.31
2022-09-15T16:40:52.617Z,99637.88
2022-09-15T16:43:21.459Z,99635.22
2022-09-15T16:45:49.212Z,99637.31
2022-09-15T16:48:15.990Z,99639.56
2022-09-15T16:53:34.746Z,99638.84
2022-09-15T16:56:01.588Z,99648.75
2022-09-15T16:58:28.391Z,99648.47
2022-09-15T17:00:55.864Z,99637.31
2022-09-15T17:03:24.684Z,99647.34
2022-09-15T17:05:53.590Z,99646.91
2022-09-15T17:08:22.819Z,99648.44
2022-09-15T17:10:50.641Z,99647.47
2022-09-15T17:13:20.062Z,99657.63
2022-09-15T17:15:46.926Z,99654.41
2022-09-15T17:18:15.332Z,99657.59
2022-09-15T17:20:44.128Z,99658.44
2022-09-15T17:23:19.412Z,99657.41
2022-09-15T17:25:52.600Z,99658.81
2022-09-15T17:28:26.973Z,99668.53
2022-09-15T17:30:58.174Z,99662.00
2022-09-15T17:33:25.902Z,99662.78
2022-09-15T17:35:53.220Z,99664.03
2022-09-15T17:38:21.627Z,99666.97
2022-09-15T17:40:49.770Z,99662.59
2022-09-15T17:43:18.490Z,99664.63
2022-09-15T17:45:46.255Z,99656.53
2022-09-15T17:48:13.026Z,99663.31
2022-09-15T17:50:41.712Z,99663.56
2022-09-15T17:53:17.382Z,99666.00
2022-09-15T17:55:44.984Z,99663.31
2022-09-15T17:58:11.678Z,99664.63
2022-09-15T18:00:41.042Z,99654.59
2022-09-15T18:03:29.844Z,99655.16
2022-09-15T18:05:58.594Z,99654.56
2022-09-15T18:08:26.184Z,99657.97
2022-09-15T18:10:53.057Z,99660.31
2022-09-15T18:13:23.341Z,99655.03
2022-09-15T18:15:50.670Z,99661.41
2022-09-15T18:18:27.392Z,99664.94
2022-09-15T18:20:56.612Z,99667.72
2022-09-15T18:23:25.729Z,99662.56
2022-09-15T18:25:52.567Z,99674.13
2022-09-15T18:28:19.821Z,99672.72
2022-09-15T18:30:48.773Z,99675.09
2022-09-15T18:33:25.892Z,99681.72
2022-09-15T18:35:54.724Z,99685.94
2022-09-15T18:38:22.307Z,99685.09
2022-09-15T18:40:53.111Z,99679.84
2022-09-15T18:43:21.162Z,99682.81
2022-09-15T18:45:48.175Z,99684.50
2022-09-15T18:48:14.991Z,99677.78
2022-09-15T18:50:43.460Z,99683.91
2022-09-15T18:53:10.214Z,99687.03
2022-09-15T18:55:36.864Z,99694.72
2022-09-15T18:58:03.583Z,99695.69
2022-09-15T19:00:31.410Z,99700.19
2022-09-15T19:03:01.012Z,99695.44
2022-09-15T19:05:29.687Z,99700.09
2022-09-15T19:07:56.767Z,99709.06
2022-09-15T19:10:25.052Z,99700.91
2022-09-15T19:12:51.850Z,99701.38
2022-09-15T19:15:18.429Z,99702.84
2022-09-15T19:17:46.499Z,99702.94
2022-09-15T19:20:15.207Z,99714.59
2022-09-15T19:22:42.263Z,99708.22
2022-09-15T19:25:10.989Z,99715.91
2022-09-15T19:27:38.787Z,99713.63
2022-09-15T19:30:07.311Z,99716.97
2022-09-15T19:32:33.869Z,99727.19
2022-09-15T19:35:00.496Z,99720.69
2022-09-15T19:37:27.265Z,99719.38
2022-09-15T19:39:54.590Z,99717.09
2022-09-15T19:42:21.145Z,99723.59
2022-09-15T19:44:49.243Z,99725.25
2022-09-15T19:47:15.813Z,99727.75
2022-09-15T19:49:42.241Z,99723.47
2022-09-15T19:52:08.881Z,99725.25
2022-09-15T19:54:35.512Z,99724.53
2022-09-15T19:57:02.508Z,99732.56
2022-09-15T19:59:31.657Z,99727.91
2022-09-15T20:01:59.393Z,99729.44
2022-09-15T20:04:26.726Z,99743.56
2022-09-15T20:06:53.342Z,99752.06
2022-09-15T20:09:19.816Z,99764.91
2022-09-15T20:11:46.486Z,99749.28
2022-09-15T20:14:13.475Z,99743.91
2022-09-15T20:16:40.879Z,99748.94
2022-09-15T20:19:07.614Z,99754.00
2022-09-15T20:21:52.008Z,99754.34
2022-09-15T20:24:20.281Z,99756.41
2022-09-15T20:26:47.505Z,99760.81
2022-09-15T20:29:14.252Z,99753.72
2022-09-15T20:31:41.551Z,99755.91
2022-09-15T20:34:08.005Z,99770.50
2022-09-15T20:36:36.529Z,99766.50
2022-09-15T20:39:06.287Z,99766.91
2022-09-15T20:41:33.285Z,99770.06
2022-09-15T20:44:00.293Z,99777.78
2022-09-15T20:46:29.453Z,99778.41
2022-09-15T20:48:56.192Z,99774.91
2022-09-15T20:51:29.610Z,99773.69
2022-09-15T20:53:57.840Z,99773.47
2022-09-15T20:56:27.417Z,99773.91
2022-09-15T20:58:56.696Z,99766.84
2022-09-15T21:01:27.823Z,99772.84
2022-09-15T21:03:57.283Z,99763.88
2022-09-15T21:06:25.947Z,99762.91
2022-09-15T21:08:53.562Z,99772.22
2022-09-15T21:11:21.287Z,99768.75
2022-09-15T21:13:48.487Z,99767.13
2022-09-15T21:16:18.255Z,99776.53
2022-09-15T21:18:45.281Z,99770.41
2022-09-15T21:21:15.223Z,99774.31
2022-09-15T21:23:44.373Z,99781.44
2022-09-15T21:26:16.624Z,99777.59
2022-09-15T21:28:44.009Z,99788.28
2022-09-15T21:31:12.384Z,99786.34
2022-09-15T21:33:39.540Z,99785.66
2022-09-15T21:36:06.525Z,99786.63
2022-09-15T21:38:34.872Z,99792.72
2022-09-15T21:41:01.704Z,99798.88
2022-09-15T21:43:36.028Z,99800.22
2022-09-15T21:46:04.982Z,99804.03
2022-09-15T21:48:33.391Z,99803.94
2022-09-15T21:51:00.317Z,99809.16
2022-09-15T21:53:26.992Z,99808.00
2022-09-15T21:55:53.770Z,99807.47
2022-09-15T21:58:22.555Z,99805.78
2022-09-15T22:00:49.989Z,99809.56
2022-09-15T22:03:18.223Z,99810.22
2022-09-15T22:05:47.322Z,99812.75
2022-09-15T22:08:16.365Z,99819.06
2022-09-15T22:10:43.669Z,99818.69
2022-09-15T22:13:12.269Z,99823.97
2022-09-15T22:15:38.758Z,99822.28
2022-09-15T22:18:06.617Z,99823.22
2022-09-15T22:20:33.073Z,99827.03
2022-09-15T22:23:02.656Z,99827.22
2022-09-15T22:25:29.361Z,99826.41
2022-09-15T22:27:55.775Z,99833.03
2022-09-15T22:30:22.627Z,99829.78
2022-09-15T22:32:49.271Z,99827.88
2022-09-15T22:35:17.306Z,99833.75
2022-09-15T22:37:44.492Z,99828.22
2022-09-15T22:40:11.500Z,99837.66
2022-09-15T22:42:38.618Z,99824.75
2022-09-15T22:45:05.868Z,99826.53
2022-09-15T22:47:33.156Z,99836.53
2022-09-15T22:49:59.683Z,99830.44
2022-09-15T22:52:26.384Z,99822.97
2022-09-15T22:54:53.010Z,99825.28
2022-09-15T22:57:19.489Z,99827.50
2022-09-15T22:59:46.344Z,99831.06
2022-09-15T23:02:12.904Z,99828.53
2022-09-15T23:04:39.615Z,99819.31
2022-09-15T23:07:06.308Z,99822.34
2022-09-15T23:09:33.142Z,99831.94
2022-09-15T23:11:59.616Z,99824.03
2022-09-15T23:14:26.588Z,99826.78
2022-09-15T23:16:53.535Z,99825.41
2022-09-15T23:19:19.959Z,99824.47
2022-09-15T23:21:46.412Z,99829.81
2022-09-15T23:24:13.939Z,99824.16
2022-09-15T23:26:40.637Z,99823.75
2022-09-15T23:29:10.102Z,99824.16
2022-09-15T23:31:37.310Z,99820.16
2022-09-15T23:34:03.893Z,99829.63
2022-09-15T23:36:30.512Z,99827.00
2022-09-15T23:38:56.939Z,99827.09
2022-09-15T23:41:24.529Z,99826.28
2022-09-15T23:43:51.484Z,99829.63
2022-09-15T23:46:18.012Z,99829.81
2022-09-15T23:48:44.721Z,99829.50
2022-09-15T23:51:11.253Z,99826.88
2022-09-15T23:53:37.694Z,99836.75
2022-09-15T23:56:04.880Z,99834.97
2022-09-15T23:58:31.397Z,99839.41
